CheckWX is a tool to help pilots better visualize weather data.  It is not intended as a substitute for an official pre-flight weather briefing.

20:21:16 UTC

GGOV TAF
Osvaldo Vieira International Airport
Bissau, Guinea-Bissau
TAF GGOV 251700Z 2518/2618 25011KT CAVOK BECMG 2608/2610 BKN014

Jun-25@
18:00 UTC

Jun-25 @ 18:00 UTC

Jun-26@
08:00 UTC

Jun-26 @ 08:00 UTC

TAF GGOV 251700Z 2518/2618 25011KT CAVOK
Wind
  • 250° at 11 KTS
Conditions
No significant weather
Cloud Levels
  • No significant clouds

Jun-26@
08:00 UTC

Jun-26 @ 08:00 UTC

Jun-26@
18:00 UTC

Jun-26 @ 18:00 UTC

BECMG 2608/2610 BKN014

Becoming

Becoming Conditions expected by Wed, Jun 26, 2019 @ 10:00 UTC

Wind
  • 250° at 11 KTS
Conditions
No significant weather
Cloud Levels
  • Broken at 1,400' AGL